Overview Statistics Trail Chart Weather Telemetry Raw packets
 

This is the latest recevied weather packets stored in our database for station/object ea1bqo-1. If no packets are shown the sender has not sent any weather packets the latest 10 day(s).

<< 1 2 3 4 5 >>
Time Temp. Humidity Pressure Rain* Wind** Luminosity Snow
1788598740 24.44° C 42% 1018.6 hPa 0 mm - - -
1788598200 23.89° C 45% 1018.6 hPa 0 mm - - -
1788597660 23.33° C 48% 1018.6 hPa 0 mm - - -
1788597120 22.22° C 50% 1018.8 hPa 0 mm - - -
1788596580 22.22° C 51% 1018.6 hPa 0 mm - - -
1788596040 21.67° C 55% 1018.7 hPa 0 mm - - -
1788595500 21.11° C 58% 1018.9 hPa 0 mm - - -
1788594960 20.56° C 61% 1019 hPa 0 mm - - -
1788594420 20.56° C 60% 1018.9 hPa 0 mm - - -
1788593880 20° C 60% 1018.9 hPa 0 mm - - -
1788593340 20° C 62% 1018.7 hPa 0 mm - - -
1788592819 19.44° C 61% 1018.8 hPa 0 mm - - -
1788592260 19.44° C 61% 1018.7 hPa 0 mm - - -
1788591720 19.44° C 60% 1018.8 hPa 0 mm - - -
1788591180 19.44° C 59% 1018.7 hPa 0 mm - - -
1788590640 19.44° C 59% 1018.8 hPa 0 mm - - -
1788590100 20° C 57% 1018.7 hPa 0 mm - - -
1788589560 20° C 55% 1018.6 hPa 0 mm - - -
1788589020 20° C 54% 1018.7 hPa 0 mm - - -
1788588480 20° C 54% 1018.8 hPa 0 mm - - -
1788587940 20° C 55% 1018.8 hPa 0 mm - - -
1788587400 20° C 56% 1018.6 hPa 0 mm - - -
1788586860 20° C 56% 1018.8 hPa 0 mm - - -
1788586320 19.44° C 57% 1018.8 hPa 0 mm - - -
1788585780 19.44° C 58% 1019 hPa 0 mm - - -

* Rain latest hour (hover to see other rain measurements)
** Current wind speed in m/s (hover to see current wind gust speed)